aviador You're here:

KOVS Decoded Metar

BOSCOBEL in WI, USA
Report Time2018-01-18 09:53:00
UTC Time2018-01-18 10:06:48
Flight Rules vfr VFR
Wind220° at 07 kt
W.Decomp.*RWY 20: 6.5 kt HW 2.5 kt RCW
RWY 25: 6.1 kt HW 3.4 kt LCW
W.Rank220° ranks 2
Current wind is above 220° avg. (6.3)
Visibility9999 m
Phenomena:N/A
Clouds:N/A
Expected CloudBase > 2,000 ft AGL from Temp-Dew spread
CeilingNone
Temp-7°C (ISA -21)
Dew Point-12°C (68% RH)
AAT-12.7°C
QNH1020 hPa
Density Alt-2,106 ft
Elevation663 ft
Report Wrong Elevation
Raw Report
KOVS 180953Z AUTO 22007KT 10SM CLR M07/M12 A3012 RMK AO2 SLP210
T10721122=

Extra information for KOVS:More info

Metar Taf Metar & Taf Last 4 Metars F.Rules Stats Wind Profile Meteogram Temp Stats Airport Information Weather charts Add Link Nearby VenuesMetar ALERT Operation Metar Decoded Social comments

AIRNAV info for KOVS